Time;durP1;ratioP1;P1;durP2;ratioP2;P2;SDS_P1;SDS_P2;PMS_P1;PMS_P2;Temp;Humidity;BMP_temperature;BMP_pressure;BME280_temperature;BME280_humidity;BME280_pressure;Samples;Min_cycle;Max_cycle;Signal;HPM_P1;HPM_P2
2021/08/12 00:00:19;;;;;;;12.40;7.95;;;;;;;14.75;91.20;102102.84;4955322;28;20043;-81
2021/08/12 00:02:44;;;;;;;14.73;7.72;;;;;;;14.72;91.45;102092.19;4970427;28;20071;-81
2021/08/12 00:05:52;;;;;;;10.70;7.80;;;;;;;14.71;91.53;102090.38;4971093;28;20027;-84
2021/08/12 00:08:18;;;;;;;17.95;9.93;;;;;;;14.72;91.55;102089.53;4970414;28;20031;-86
2021/08/12 00:10:43;;;;;;;14.35;7.97;;;;;;;14.72;91.48;102084.22;4972100;28;20031;-80
2021/08/12 00:13:09;;;;;;;13.77;8.35;;;;;;;14.71;91.69;102082.44;4969539;28;20039;-83
2021/08/12 00:15:54;;;;;;;12.05;9.05;;;;;;;14.71;91.82;102087.75;4960042;28;20390;-84
2021/08/12 00:18:20;;;;;;;15.65;9.27;;;;;;;14.70;92.10;102082.41;4962672;28;20039;-79
2021/08/12 00:20:45;;;;;;;15.48;8.48;;;;;;;14.69;92.01;102091.22;4959029;28;20027;-82
2021/08/12 00:23:13;;;;;;;21.70;9.25;;;;;;;14.70;91.85;102093.00;4966702;28;20047;-84
2021/08/12 00:25:39;;;;;;;19.70;10.27;;;;;;;14.67;92.36;102091.19;4940621;28;20043;-84
2021/08/12 00:28:09;;;;;;;17.80;9.88;;;;;;;14.65;92.49;102085.00;4973683;28;20095;-85
2021/08/12 00:30:37;;;;;;;14.02;9.98;;;;;;;14.64;92.42;102080.53;4940533;28;20111;-80
2021/08/12 00:33:03;;;;;;;18.15;10.55;;;;;;;14.61;92.59;102083.06;4957461;28;20503;-82
2021/08/12 00:35:30;;;;;;;20.13;11.05;;;;;;;14.60;92.82;102068.06;4967366;28;20035;-80
2021/08/12 00:37:59;;;;;;;18.80;11.32;;;;;;;14.60;92.69;102070.72;4956262;28;20023;-84
2021/08/12 00:40:30;;;;;;;16.65;11.32;;;;;;;14.61;92.73;102072.47;4952554;29;20094;-86
2021/08/12 00:42:56;;;;;;;21.58;11.02;;;;;;;14.61;92.94;102072.47;4952948;29;20028;-82
2021/08/12 00:45:21;;;;;;;17.92;11.43;;;;;;;14.58;93.07;102078.63;4950081;28;20079;-84
2021/08/12 00:47:51;;;;;;;25.50;12.02;;;;;;;14.57;93.14;102086.53;4934592;29;20038;-79
2021/08/12 00:50:20;;;;;;;18.35;11.27;;;;;;;14.55;93.46;102082.97;4939574;28;20039;-81
2021/08/12 00:53:05;;;;;;;16.85;11.88;;;;;;;14.56;93.29;102068.88;4949445;28;20409;-83
2021/08/12 00:55:31;;;;;;;16.48;11.48;;;;;;;14.58;93.06;102065.41;4943705;28;20035;-84
2021/08/12 00:57:56;;;;;;;22.25;11.60;;;;;;;14.62;93.36;102058.38;4953310;28;20403;-84
2021/08/12 01:00:22;;;;;;;17.73;12.00;;;;;;;14.64;93.03;102068.19;4951749;28;20532;-79
2021/08/12 01:03:10;;;;;;;19.42;12.75;;;;;;;14.62;93.05;102064.59;4955188;28;20038;-84
2021/08/12 01:06:02;;;;;;;20.88;12.80;;;;;;;14.58;93.08;102061.84;4941045;29;20027;-83
2021/08/12 01:08:55;;;;;;;18.38;12.52;;;;;;;14.56;93.02;102058.28;4940991;28;20039;-85
2021/08/12 01:11:21;;;;;;;24.50;14.97;;;;;;;14.55;93.41;102062.66;4943564;28;20122;-82
2021/08/12 01:13:55;;;;;;;25.13;15.30;;;;;;;14.54;93.62;102057.34;4955938;29;20142;-83
2021/08/12 01:16:31;;;;;;;22.55;14.30;;;;;;;14.55;93.61;102053.84;4949295;29;20087;-80
2021/08/12 01:19:22;;;;;;;25.00;15.05;;;;;;;14.57;93.50;102054.75;4939818;29;20035;-82
2021/08/12 01:22:16;;;;;;;20.42;14.45;;;;;;;14.57;93.65;102060.94;4940977;29;20115;-79
2021/08/12 01:25:05;;;;;;;24.05;13.63;;;;;;;14.55;93.48;102056.47;4944888;28;20134;-81
2021/08/12 01:27:34;;;;;;;25.40;15.60;;;;;;;14.54;93.40;102054.69;4976022;28;20086;-82
2021/08/12 01:30:34;;;;;;;24.83;16.05;;;;;;;14.50;93.65;102059.03;4973844;28;20342;-80
2021/08/12 01:33:30;;;;;;;29.60;17.10;;;;;;;14.48;93.74;102066.94;4966847;28;20026;-82
2021/08/12 01:36:19;;;;;;;23.63;15.73;;;;;;;14.47;93.79;102070.47;4975351;28;20034;-82
2021/08/12 01:38:47;;;;;;;28.40;17.42;;;;;;;14.45;93.90;102068.66;4975230;28;20046;-84
2021/08/12 01:41:14;;;;;;;27.55;15.25;;;;;;;14.44;93.92;102059.81;4969199;28;20031;-81
2021/08/12 01:44:00;;;;;;;26.52;16.20;;;;;;;14.44;94.40;102053.63;4964774;28;20091;-83
2021/08/12 01:46:27;;;;;;;24.83;16.85;;;;;;;14.47;94.22;102048.38;4969345;28;20053;-83
2021/08/12 01:48:57;;;;;;;29.65;17.73;;;;;;;14.48;94.44;102040.47;4973333;28;20034;-78
2021/08/12 01:51:26;;;;;;;29.33;18.40;;;;;;;14.49;94.30;102042.25;4967228;28;20030;-83
2021/08/12 01:53:52;;;;;;;31.40;19.17;;;;;;;14.48;94.35;102048.41;4966368;28;20038;-84
2021/08/12 01:56:39;;;;;;;30.85;17.25;;;;;;;14.46;94.23;102043.94;4960877;28;20030;-80
2021/08/12 01:59:25;;;;;;;31.88;18.58;;;;;;;14.44;94.42;102037.72;4965782;28;20043;-79
2021/08/12 02:02:12;;;;;;;32.22;18.35;;;;;;;14.41;94.81;102038.56;4965468;28;20474;-80
2021/08/12 02:04:40;;;;;;;32.38;20.52;;;;;;;14.40;94.90;102036.78;4970111;28;20071;-80
2021/08/12 02:07:25;;;;;;;37.20;22.20;;;;;;;14.39;95.22;102028.78;4964754;28;20046;-83
2021/08/12 02:09:53;;;;;;;37.80;20.75;;;;;;;14.38;95.32;102019.97;4959912;28;20479;-82
2021/08/12 02:12:18;;;;;;;39.28;21.73;;;;;;;14.39;95.38;102027.06;4970294;28;20027;-84
2021/08/12 02:15:24;;;;;;;44.50;21.58;;;;;;;14.41;95.42;102022.66;4963653;28;20031;-82
2021/08/12 02:17:52;;;;;;;38.08;21.20;;;;;;;14.43;95.54;102023.59;4959671;28;20118;-83
2021/08/12 02:20:57;;;;;;;36.63;20.98;;;;;;;14.43;95.49;102028.91;4959614;28;20031;-81
2021/08/12 02:23:33;;;;;;;35.33;19.83;;;;;;;14.44;95.40;102021.84;4957314;28;20083;-85
2021/08/12 02:26:18;;;;;;;39.35;21.27;;;;;;;14.41;95.39;102024.44;4973499;28;20502;-82
2021/08/12 02:29:04;;;;;;;38.42;21.73;;;;;;;14.39;95.44;102029.72;4966722;28;20027;-81
2021/08/12 02:31:50;;;;;;;35.25;19.60;;;;;;;14.33;95.25;102025.16;4959508;28;20118;-80
2021/08/12 02:34:36;;;;;;;31.20;19.35;;;;;;;14.30;94.97;102019.81;4972830;28;20111;-80
2021/08/12 02:37:08;;;;;;;30.58;19.52;;;;;;;14.27;94.82;102010.91;4964809;28;20034;-79
2021/08/12 02:39:35;;;;;;;34.72;18.98;;;;;;;14.26;94.71;102023.25;4974568;28;20072;-83
2021/08/12 02:42:13;;;;;;;28.52;18.23;;;;;;;14.22;94.56;102016.13;4967921;28;20478;-80
2021/08/12 02:45:00;;;;;;;37.35;20.38;;;;;;;14.19;94.89;102015.16;4972506;28;20121;-85
2021/08/12 02:47:26;;;;;;;30.42;19.50;;;;;;;14.17;94.99;102023.06;4957411;28;20126;-83
2021/08/12 02:50:02;;;;;;;35.53;20.77;;;;;;;14.14;95.20;102023.88;4953257;28;20031;-81
2021/08/12 02:52:28;;;;;;;34.15;18.77;;;;;;;14.11;94.99;102020.31;4962879;28;20034;-81
2021/08/12 02:54:55;;;;;;;35.00;19.52;;;;;;;14.05;95.21;102018.41;4971729;28;20038;-81
2021/08/12 02:57:22;;;;;;;32.10;18.92;;;;;;;14.03;95.18;102020.13;4970785;28;20517;-82
2021/08/12 03:00:08;;;;;;;34.60;19.77;;;;;;;14.00;95.11;102030.66;4960678;28;20114;-80
2021/08/12 03:02:34;;;;;;;33.13;20.60;;;;;;;13.98;95.36;102037.66;4958315;28;20482;-83
2021/08/12 03:05:00;;;;;;;35.47;18.95;;;;;;;13.94;95.20;102031.41;4957665;28;20186;-84
2021/08/12 03:08:06;;;;;;;34.92;19.17;;;;;;;13.91;95.14;102023.41;4967518;28;20504;-80
2021/08/12 03:10:32;;;;;;;32.00;17.80;;;;;;;13.85;95.28;102023.28;4939441;28;20117;-81
2021/08/12 03:13:17;;;;;;;35.25;19.15;;;;;;;13.84;95.24;102018.84;4957594;28;20537;-82
2021/08/12 03:15:46;;;;;;;37.60;20.80;;;;;;;13.81;95.21;102022.31;4942314;28;20035;-84
2021/08/12 03:18:12;;;;;;;37.28;19.33;;;;;;;13.80;95.58;102023.16;4966923;28;20058;-85
2021/08/12 03:20:41;;;;;;;38.67;22.33;;;;;;;13.80;95.77;102022.28;4956689;28;20030;-83
2021/08/12 03:23:07;;;;;;;36.72;19.40;;;;;;;13.80;95.81;102032.88;4969068;28;20042;-81
2021/08/12 03:25:32;;;;;;;40.05;21.95;;;;;;;13.77;95.93;102033.69;4946400;28;21623;-83
2021/08/12 03:27:59;;;;;;;38.47;21.23;;;;;;;13.75;95.77;102032.75;4955866;28;20098;-80
2021/08/12 03:30:25;;;;;;;37.80;20.90;;;;;;;13.73;95.70;102030.97;4954731;29;20070;-84
2021/08/12 03:32:58;;;;;;;41.58;20.50;;;;;;;13.69;95.88;102023.78;4954499;28;20035;-79
2021/08/12 03:35:26;;;;;;;39.38;21.65;;;;;;;13.67;96.11;102036.97;4943786;28;20132;-82
2021/08/12 03:37:51;;;;;;;41.00;22.88;;;;;;;13.67;96.03;102031.69;4945398;28;20054;-80
2021/08/12 03:40:17;;;;;;;37.30;21.70;;;;;;;13.66;95.92;102024.63;4952416;28;20034;-80
2021/08/12 03:42:45;;;;;;;42.70;23.15;;;;;;;13.68;96.30;102030.84;4954916;29;20039;-81
2021/08/12 03:45:10;;;;;;;37.05;21.95;;;;;;;13.71;96.38;102030.91;4955326;29;20038;-82
2021/08/12 03:47:36;;;;;;;42.13;22.70;;;;;;;13.70;96.54;102023.84;4954347;29;20035;-81
2021/08/12 03:50:21;;;;;;;42.78;22.13;;;;;;;13.73;96.44;102026.53;4951301;29;20030;-80
2021/08/12 03:52:47;;;;;;;43.42;22.15;;;;;;;13.75;96.65;102030.09;4937800;28;20031;-83
2021/08/12 03:55:12;;;;;;;44.65;23.23;;;;;;;13.76;96.61;102029.25;4937905;28;20038;-81
2021/08/12 03:58:01;;;;;;;42.65;21.20;;;;;;;13.79;96.65;102031.97;4939084;28;20032;-81
2021/08/12 04:00:26;;;;;;;37.38;19.70;;;;;;;13.79;96.80;102026.66;4931060;29;20111;-80
2021/08/12 04:02:52;;;;;;;38.13;21.95;;;;;;;13.81;96.63;102024.09;4935252;29;20019;-84
2021/08/12 04:05:18;;;;;;;37.95;19.75;;;;;;;13.85;96.73;102030.31;4953471;28;20122;-82
2021/08/12 04:07:43;;;;;;;39.58;22.65;;;;;;;13.88;96.62;102030.41;4941346;28;20526;-82
2021/08/12 04:10:29;;;;;;;37.58;20.10;;;;;;;13.91;96.65;102030.47;4943026;28;20036;-81
2021/08/12 04:12:55;;;;;;;35.35;19.55;;;;;;;13.92;96.60;102019.91;4932726;29;20042;-83
2021/08/12 04:15:23;;;;;;;35.28;20.45;;;;;;;13.95;96.44;102027.03;4941999;28;20449;-83
2021/08/12 04:17:53;;;;;;;42.47;22.42;;;;;;;13.98;96.62;102032.38;4948423;28;20406;-81
2021/08/12 04:20:38;;;;;;;37.47;20.17;;;;;;;14.00;96.31;102028.03;4944907;28;20032;-78
2021/08/12 04:23:04;;;;;;;40.55;21.95;;;;;;;14.04;96.67;102035.16;4948793;28;20082;-80
2021/08/12 04:25:29;;;;;;;47.03;22.55;;;;;;;14.08;96.80;102042.31;4943720;28;20448;-81
2021/08/12 04:28:17;;;;;;;44.78;22.17;;;;;;;14.11;96.89;102033.53;4936747;28;20095;-81
2021/08/12 04:30:45;;;;;;;39.22;21.33;;;;;;;14.13;96.96;102040.66;4943356;28;20075;-84
2021/08/12 04:33:11;;;;;;;38.70;21.17;;;;;;;14.15;97.03;102040.69;4944525;28;20027;-81
2021/08/12 04:35:40;;;;;;;36.13;19.70;;;;;;;14.15;96.97;102041.56;4941451;28;20036;-79
2021/08/12 04:38:05;;;;;;;36.60;20.00;;;;;;;14.16;97.05;102046.00;4943499;28;20042;-82
2021/08/12 04:40:51;;;;;;;37.00;20.20;;;;;;;14.19;96.70;102038.97;4947018;28;20055;-81
2021/08/12 04:43:16;;;;;;;41.15;21.70;;;;;;;14.23;96.88;102038.19;4941822;28;20038;-81
2021/08/12 04:46:22;;;;;;;37.80;20.52;;;;;;;14.28;96.75;102036.53;4952073;28;20130;-80
2021/08/12 04:48:48;;;;;;;39.20;21.55;;;;;;;14.31;96.94;102048.09;4950768;28;20443;-85
2021/08/12 04:51:33;;;;;;;35.50;19.70;;;;;;;14.33;96.88;102046.34;4951330;28;20035;-83
2021/08/12 04:53:59;;;;;;;42.95;21.27;;;;;;;14.37;96.74;102057.91;4947647;29;20066;-82
2021/08/12 04:56:24;;;;;;;38.92;21.02;;;;;;;14.40;96.78;102057.94;4936852;29;20394;-82
2021/08/12 04:58:50;;;;;;;44.22;21.63;;;;;;;14.44;96.74;102057.16;4956054;28;20058;-82
2021/08/12 05:01:20;;;;;;;40.05;22.52;;;;;;;14.52;96.89;102051.13;4952673;28;20039;-83
2021/08/12 05:04:05;;;;;;;42.63;23.45;;;;;;;14.55;96.87;102046.78;4943258;28;20057;-82
2021/08/12 05:06:36;;;;;;;41.75;21.58;;;;;;;14.61;96.94;102044.25;4950230;28;20086;-80
2021/08/12 05:09:02;;;;;;;37.90;21.80;;;;;;;14.65;96.58;102037.31;4946957;28;20028;-81
2021/08/12 05:11:29;;;;;;;36.30;21.67;;;;;;;14.70;96.97;102035.59;4941738;28;20040;-81
2021/08/12 05:13:55;;;;;;;44.88;22.63;;;;;;;14.73;96.83;102030.38;4922775;29;20031;-80
2021/08/12 05:16:21;;;;;;;44.13;21.05;;;;;;;14.78;96.74;102034.00;4939925;28;20516;-78
2021/08/12 05:18:46;;;;;;;36.35;20.95;;;;;;;14.77;96.39;102032.22;4939765;28;20054;-78
2021/08/12 05:21:12;;;;;;;39.10;21.10;;;;;;;14.79;96.39;102040.19;4951693;28;20050;-82
2021/08/12 05:23:38;;;;;;;36.35;21.30;;;;;;;14.81;96.35;102034.06;4949331;28;20046;-83
2021/08/12 05:26:04;;;;;;;43.55;21.17;;;;;;;14.83;96.37;102026.13;4944071;28;20059;-82
2021/08/12 05:28:29;;;;;;;40.47;21.23;;;;;;;14.86;96.25;102035.91;4948775;28;20083;-80
2021/08/12 05:30:55;;;;;;;40.60;22.05;;;;;;;14.89;96.28;102036.84;4942718;28;20458;-80
2021/08/12 05:33:20;;;;;;;39.03;22.23;;;;;;;14.91;96.67;102036.88;4940483;28;20475;-82
2021/08/12 05:35:46;;;;;;;40.22;22.30;;;;;;;14.93;96.18;102037.78;4942347;28;20035;-83
2021/08/12 05:38:13;;;;;;;48.13;23.27;;;;;;;14.97;96.27;102037.84;4942685;29;20044;-80
2021/08/12 05:40:40;;;;;;;42.30;22.95;;;;;;;15.00;96.30;102044.97;4948890;28;20043;-83
2021/08/12 05:43:45;;;;;;;41.17;23.67;;;;;;;15.10;96.56;102046.06;4953783;28;20494;-81
2021/08/12 05:46:10;;;;;;;46.08;24.25;;;;;;;15.14;96.57;102043.47;4940016;28;20103;-81
2021/08/12 05:48:36;;;;;;;44.25;23.27;;;;;;;15.24;96.48;102043.63;4956630;29;20058;-78
2021/08/12 05:51:02;;;;;;;44.80;22.90;;;;;;;15.30;96.40;102044.63;4941262;29;20051;-80
2021/08/12 05:53:30;;;;;;;42.92;22.48;;;;;;;15.37;96.15;102047.34;4943780;29;20027;-81
2021/08/12 05:55:55;;;;;;;36.78;23.25;;;;;;;15.48;95.98;102049.31;4939851;28;20092;-84
2021/08/12 05:58:21;;;;;;;43.75;21.65;;;;;;;15.60;95.91;102053.94;4938474;29;20043;-78
2021/08/12 06:00:46;;;;;;;42.10;21.48;;;;;;;15.68;95.55;102046.06;4935906;28;20032;-80
2021/08/12 06:03:13;;;;;;;35.78;18.85;;;;;;;15.80;94.67;102048.97;4945215;28;20189;-81
2021/08/12 06:05:39;;;;;;;33.38;19.02;;;;;;;15.89;94.66;102049.94;4945814;28;20027;-78
2021/08/12 06:08:07;;;;;;;27.98;17.30;;;;;;;16.01;93.89;102047.47;4942902;29;20042;-81
2021/08/12 06:10:52;;;;;;;31.80;17.88;;;;;;;16.06;92.76;102050.16;4939665;28;20031;-82
2021/08/12 06:13:18;;;;;;;27.30;17.60;;;;;;;16.17;92.40;102048.56;4950486;29;20458;-83
2021/08/12 06:15:46;;;;;;;32.80;18.92;;;;;;;16.31;92.32;102056.69;4948901;28;20059;-80
2021/08/12 06:18:13;;;;;;;25.08;16.70;;;;;;;16.45;91.65;102049.75;4947928;29;20042;-83
2021/08/12 06:20:42;;;;;;;28.08;14.52;;;;;;;16.86;89.96;102053.75;4949288;28;20055;-82
2021/08/12 06:23:27;;;;;;;22.25;14.23;;;;;;;17.59;86.62;102044.63;4935101;29;20027;-80
2021/08/12 06:25:55;;;;;;;18.98;11.40;;;;;;;18.32;82.94;102037.94;4946468;28;20565;-80
2021/08/12 06:28:21;;;;;;;16.83;11.23;;;;;;;19.12;78.50;102028.34;4955912;29;20059;-81
2021/08/12 06:30:46;;;;;;;17.92;11.50;;;;;;;19.63;75.29;102020.25;4954195;28;20058;-80
2021/08/12 06:33:12;;;;;;;19.60;10.93;;;;;;;19.95;73.60;102032.69;4953045;28;20031;-81
2021/08/12 06:35:37;;;;;;;15.80;9.77;;;;;;;20.43;71.16;102019.09;4952873;28;20100;-83
2021/08/12 06:38:23;;;;;;;16.58;9.90;;;;;;;20.58;71.50;102020.78;4944927;28;20062;-81
2021/08/12 06:40:49;;;;;;;14.10;9.93;;;;;;;20.75;68.75;102018.91;4941348;29;20126;-76
2021/08/12 06:43:14;;;;;;;12.07;8.32;;;;;;;20.77;69.90;102019.81;4927059;29;20126;-79
2021/08/12 06:45:40;;;;;;;13.95;8.68;;;;;;;20.92;67.41;102023.25;4950745;28;20487;-81
2021/08/12 06:48:06;;;;;;;12.50;9.10;;;;;;;20.93;67.36;102027.72;4936062;28;20372;-82
2021/08/12 06:50:32;;;;;;;12.70;8.70;;;;;;;20.97;69.18;102026.78;4937682;28;20023;-79
2021/08/12 06:52:58;;;;;;;12.07;8.02;;;;;;;21.10;67.48;102025.78;4939868;28;20470;-79
2021/08/12 06:55:23;;;;;;;22.45;9.15;;;;;;;21.19;66.91;102023.03;4936083;28;20039;-82
2021/08/12 06:58:12;;;;;;;12.68;8.05;;;;;;;21.18;68.55;102031.09;4943959;28;20457;-80
2021/08/12 07:00:37;;;;;;;11.20;7.10;;;;;;;21.22;66.51;102024.81;4931744;28;20062;-81
2021/08/12 07:03:03;;;;;;;13.32;7.47;;;;;;;21.19;66.91;102027.50;4937746;28;20031;-82
2021/08/12 07:05:28;;;;;;;10.38;6.95;;;;;;;21.33;65.85;102038.09;4925090;28;20087;-81
2021/08/12 07:07:54;;;;;;;10.90;6.75;;;;;;;21.41;68.64;102043.38;4946210;28;20027;-81
2021/08/12 07:10:19;;;;;;;13.77;7.78;;;;;;;21.59;67.17;102029.81;4940274;28;20086;-80
2021/08/12 07:12:45;;;;;;;11.23;6.57;;;;;;;21.71;64.79;102026.13;4942516;28;20024;-82
2021/08/12 07:15:11;;;;;;;8.82;6.10;;;;;;;21.59;65.20;102021.78;4935595;28;20066;-81
2021/08/12 07:17:38;;;;;;;13.20;7.50;;;;;;;21.17;65.91;102024.81;4937892;28;20031;-79
2021/08/12 07:20:04;;;;;;;13.30;6.22;;;;;;;21.12;65.74;102032.03;4937989;28;20035;-79
2021/08/12 07:22:30;;;;;;;8.50;6.38;;;;;;;20.98;66.07;102023.22;4935172;28;20367;-79
2021/08/12 07:24:55;;;;;;;8.43;6.20;;;;;;;20.71;68.55;102036.78;4938690;28;20051;-79
2021/08/12 07:27:21;;;;;;;13.52;6.00;;;;;;;20.74;67.48;102040.34;4945179;28;20031;-81
2021/08/12 07:29:54;;;;;;;10.80;5.72;;;;;;;20.91;66.28;102037.56;4940228;28;20034;-83
2021/08/12 07:32:19;;;;;;;11.77;6.15;;;;;;;20.83;67.04;102041.16;4934797;28;20046;-81
2021/08/12 07:35:05;;;;;;;15.65;4.93;;;;;;;20.97;65.90;102046.41;4940117;29;20032;-81
2021/08/12 07:37:30;;;;;;;13.00;5.32;;;;;;;20.83;67.86;102046.50;4940387;28;20030;-80
2021/08/12 07:40:16;;;;;;;10.85;5.55;;;;;;;20.73;67.63;102044.81;4945562;29;20116;-83
2021/08/12 07:42:41;;;;;;;7.38;4.65;;;;;;;20.82;67.32;102041.16;4935237;28;20089;-78
2021/08/12 07:45:07;;;;;;;9.45;4.80;;;;;;;20.77;66.08;102046.56;4935850;28;20391;-78
2021/08/12 07:47:33;;;;;;;7.10;4.28;;;;;;;20.67;66.09;102044.78;4945382;28;20058;-78
2021/08/12 07:50:18;;;;;;;8.95;4.35;;;;;;;20.71;66.26;102038.56;4942983;28;20738;-81
2021/08/12 07:52:44;;;;;;;5.70;3.38;;;;;;;20.77;66.74;102033.19;4948131;28;20569;-81
2021/08/12 07:55:10;;;;;;;7.07;3.85;;;;;;;20.76;65.16;102039.44;4943127;28;20027;-81
2021/08/12 07:57:58;;;;;;;9.90;3.75;;;;;;;20.75;65.30;102032.28;4943046;29;20403;-78
2021/08/12 08:00:24;;;;;;;4.78;2.97;;;;;;;20.71;63.37;102036.78;4935215;28;20027;-81
2021/08/12 08:02:50;;;;;;;5.55;3.00;;;;;;;20.66;63.89;102034.97;4934007;28;20020;-83
2021/08/12 08:05:20;;;;;;;7.00;3.08;;;;;;;20.70;64.44;102042.13;4943745;28;20448;-82
2021/08/12 08:07:47;;;;;;;6.03;3.13;;;;;;;20.70;64.91;102040.34;4944277;28;20513;-77
2021/08/12 08:10:17;;;;;;;9.48;4.40;;;;;;;20.80;64.40;102041.19;4949803;28;20024;-79
2021/08/12 08:12:43;;;;;;;8.93;3.47;;;;;;;20.67;64.50;102034.09;4941561;28;20031;-84
2021/08/12 08:15:10;;;;;;;5.68;3.00;;;;;;;20.64;62.78;102032.31;4948732;28;20441;-78
2021/08/12 08:17:36;;;;;;;5.43;2.63;;;;;;;20.74;63.76;102041.25;4942010;28;20059;-83
2021/08/12 08:20:03;;;;;;;4.28;2.53;;;;;;;20.75;64.49;102045.66;4954380;29;20453;-83
2021/08/12 08:22:28;;;;;;;5.78;2.80;;;;;;;21.01;62.43;102044.59;4946425;28;20035;-79
2021/08/12 08:24:54;;;;;;;7.97;2.90;;;;;;;21.15;61.32;102039.16;4945960;28;20375;-81
2021/08/12 08:27:20;;;;;;;6.47;3.10;;;;;;;21.21;61.53;102039.94;4951922;28;20079;-79
2021/08/12 08:29:45;;;;;;;7.75;2.70;;;;;;;21.39;62.06;102040.69;4934833;29;20443;-85
2021/08/12 08:32:32;;;;;;;5.93;2.50;;;;;;;21.36;60.44;102041.59;4942350;28;20597;-81
2021/08/12 08:34:57;;;;;;;5.68;2.58;;;;;;;21.57;60.89;102045.03;4943868;28;20055;-80
2021/08/12 08:37:23;;;;;;;4.88;3.08;;;;;;;21.48;60.69;102040.59;4948575;28;20069;-80
2021/08/12 08:39:48;;;;;;;7.00;3.08;;;;;;;21.82;59.56;102034.94;4944446;28;20609;-83
2021/08/12 08:42:34;;;;;;;4.13;2.58;;;;;;;21.97;58.87;102038.34;4935602;29;20032;-82
2021/08/12 08:45:00;;;;;;;6.45;3.03;;;;;;;22.23;59.70;102046.97;4939618;28;20051;-79
2021/08/12 08:47:46;;;;;;;6.82;3.40;;;;;;;22.40;59.79;102038.69;4939075;28;20061;-80
2021/08/12 08:50:17;;;;;;;6.13;3.25;;;;;;;22.63;56.32;102031.25;4948534;28;20028;-79
2021/08/12 08:53:05;;;;;;;7.18;2.42;;;;;;;22.95;58.72;102035.22;4948799;28;20068;-83
2021/08/12 08:55:31;;;;;;;4.72;2.15;;;;;;;22.98;54.79;102019.06;4926168;29;20133;-78
2021/08/12 08:58:18;;;;;;;8.20;2.60;;;;;;;23.00;56.77;102027.97;4942852;28;20115;-84
2021/08/12 09:00:44;;;;;;;4.40;2.28;;;;;;;23.27;56.03;102017.72;4952615;28;20054;-82
2021/08/12 09:03:29;;;;;;;8.77;1.90;;;;;;;23.47;54.13;102015.56;4947911;28;20038;-80
2021/08/12 09:05:55;;;;;;;3.95;1.90;;;;;;;23.57;55.28;102025.19;4943673;28;20367;-83
2021/08/12 09:08:20;;;;;;;7.43;2.10;;;;;;;23.63;53.24;102009.88;4942582;28;20050;-77
2021/08/12 09:10:47;;;;;;;7.20;1.80;;;;;;;23.63;52.86;102007.19;4949237;28;20035;-82
2021/08/12 09:13:13;;;;;;;4.82;2.03;;;;;;;23.84;53.19;102020.19;4949316;28;20046;-81
2021/08/12 09:15:45;;;;;;;4.43;1.95;;;;;;;23.92;52.55;102019.22;4950956;28;20474;-79
2021/08/12 09:18:39;;;;;;;3.00;1.75;;;;;;;24.36;52.08;102025.41;4949323;28;20040;-85
2021/08/12 09:21:20;;;;;;;4.00;1.95;;;;;;;24.17;54.58;102028.53;4940600;29;20553;-80
2021/08/12 09:23:58;;;;;;;5.97;2.22;;;;;;;24.31;52.43;102022.84;4942231;28;20031;-82
2021/08/12 09:26:44;;;;;;;5.15;2.42;;;;;;;24.42;52.92;102031.53;4948949;28;20523;-80
2021/08/12 09:29:11;;;;;;;4.95;2.53;;;;;;;24.74;51.45;102029.06;4940855;28;20427;-82
2021/08/12 09:31:56;;;;;;;7.88;2.50;;;;;;;24.86;51.41;102026.06;4950866;28;20027;-81
2021/08/12 09:34:22;;;;;;;7.53;2.60;;;;;;;25.10;51.92;102034.47;4946025;28;20091;-81
2021/08/12 09:37:01;;;;;;;4.85;2.55;;;;;;;24.96;50.68;102017.75;4941952;28;20054;-86
2021/08/12 09:39:27;;;;;;;4.78;2.00;;;;;;;24.92;52.31;102031.31;4940914;28;20036;-82
2021/08/12 09:41:54;;;;;;;4.45;2.58;;;;;;;25.32;51.73;102033.91;4937042;28;20032;-82
2021/08/12 09:45:01;;;;;;;5.10;2.15;;;;;;;26.05;49.70;102031.03;4940102;29;20036;-83
2021/08/12 09:47:29;;;;;;;6.10;2.30;;;;;;;26.15;47.64;102026.22;4939725;28;20058;-77
2021/08/12 09:49:59;;;;;;;5.85;1.98;;;;;;;26.15;49.08;102028.94;4940250;28;20395;-81
2021/08/12 09:52:32;;;;;;;4.70;2.00;;;;;;;26.93;50.28;102036.41;4943616;28;20039;-81
2021/08/12 09:54:57;;;;;;;;;;;;;;;27.37;47.26;102030.44;4928065;28;20403;-81
2021/08/12 09:57:24;;;;;;;3.35;2.15;;;;;;;28.13;43.74;102013.31;4940167;28;19914;-81
2021/08/12 09:59:52;;;;;;;7.47;2.47;;;;;;;28.45;42.95;102014.75;4941520;28;20081;-80
2021/08/12 10:02:23;;;;;;;3.60;1.80;;;;;;;28.90;41.00;102004.81;4939277;28;20122;-86
2021/08/12 10:05:10;;;;;;;2.72;2.00;;;;;;;28.57;42.89;102003.41;4939712;28;20033;-85
2021/08/12 10:08:07;;;;;;;5.82;1.85;;;;;;;28.55;45.55;102020.66;4950403;28;20062;-83
2021/08/12 10:10:33;;;;;;;2.50;1.77;;;;;;;28.78;41.30;102003.50;4952075;28;20051;-86
2021/08/12 10:13:20;;;;;;;3.75;1.67;;;;;;;29.43;40.16;101993.47;4943770;28;20662;-78
2021/08/12 10:16:05;;;;;;;5.40;2.13;;;;;;;29.46;43.34;102007.84;4940335;28;20126;-83
2021/08/12 10:18:31;;;;;;;2.92;1.55;;;;;;;29.89;38.71;101987.81;4931881;29;20035;-81
2021/08/12 10:20:57;;;;;;;4.22;1.90;;;;;;;29.80;40.33;102004.47;4946912;28;20045;-79
2021/08/12 10:23:23;;;;;;;8.85;1.80;;;;;;;30.00;40.72;101991.84;4948770;28;20483;-81
2021/08/12 10:25:58;;;;;;;2.97;1.65;;;;;;;29.90;39.09;101986.88;4939952;28;20043;-80
2021/08/12 10:28:25;;;;;;;4.63;2.38;;;;;;;29.93;39.20;101986.72;4944939;28;20042;-80
2021/08/12 10:31:12;;;;;;;4.85;2.30;;;;;;;30.20;38.64;101994.50;4951086;29;20051;-80
2021/08/12 10:33:39;;;;;;;4.38;1.90;;;;;;;30.86;36.91;101974.06;4936038;29;20030;-86
2021/08/12 10:36:05;;;;;;;4.72;2.53;;;;;;;30.75;39.18;102006.34;4949101;28;20087;-81
2021/08/12 10:38:31;;;;;;;4.45;2.13;;;;;;;31.05;38.41;101994.88;4945720;28;20431;-83
2021/08/12 10:41:16;;;;;;;5.35;2.25;;;;;;;30.82;37.55;101988.78;4950959;28;20047;-84
2021/08/12 10:43:46;;;;;;;6.18;2.25;;;;;;;31.30;38.49;101997.22;4954618;28;20027;-80
2021/08/12 10:46:12;;;;;;;4.22;1.95;;;;;;;31.26;36.96;101992.91;4940485;29;20466;-79
2021/08/12 10:49:16;;;;;;;5.63;2.80;;;;;;;30.63;39.62;102006.97;4951735;28;20070;-84
2021/08/12 10:51:58;;;;;;;4.22;2.10;;;;;;;30.19;39.03;101992.72;4955053;28;20040;-83
2021/08/12 10:54:27;;;;;;;5.50;2.33;;;;;;;29.97;38.06;101986.59;4948081;29;20459;-83
2021/08/12 10:57:12;;;;;;;4.45;2.10;;;;;;;29.83;40.58;102000.75;4937222;28;20028;-80
2021/08/12 10:59:40;;;;;;;4.30;2.30;;;;;;;29.42;40.44;102007.09;4925463;28;20050;-84
2021/08/12 11:02:27;;;;;;;5.43;2.42;;;;;;;29.11;39.82;102011.13;4928668;29;20062;-83
2021/08/12 11:05:13;;;;;;;5.45;2.30;;;;;;;28.67;43.55;102011.19;4949326;28;20031;-83
2021/08/12 11:07:41;;;;;;;4.03;2.10;;;;;;;28.86;42.76;102019.44;4939012;28;20032;-85
2021/08/12 11:10:28;;;;;;;3.88;2.40;;;;;;;28.24;40.76;102000.22;4945863;29;20031;-83
2021/08/12 11:12:53;;;;;;;5.60;2.42;;;;;;;27.02;43.50;102018.13;4948184;29;20047;-86
2021/08/12 11:15:38;;;;;;;4.70;2.28;;;;;;;26.35;46.13;102022.06;4949898;28;20082;-78
2021/08/12 11:18:26;;;;;;;4.53;2.78;;;;;;;26.12;47.98;102031.72;4930309;28;20043;-87
2021/08/12 11:21:29;;;;;;;5.03;2.35;;;;;;;26.29;49.31;102033.94;4937123;28;20027;-81
2021/08/12 11:23:58;;;;;;;4.00;2.50;;;;;;;26.67;48.79;102045.34;4942263;28;20089;-87
2021/08/12 11:26:26;;;;;;;3.92;2.30;;;;;;;26.81;46.08;102036.81;4946118;28;20063;-83
2021/08/12 11:28:55;;;;;;;4.00;2.53;;;;;;;27.02;45.84;102031.63;4935645;29;20304;-85
2021/08/12 11:31:20;;;;;;;6.45;2.20;;;;;;;27.43;45.74;102026.66;4937436;28;20040;-81
2021/08/12 11:33:51;;;;;;;9.43;2.40;;;;;;;27.64;42.56;102016.88;4938823;28;20027;-84
2021/08/12 11:36:39;;;;;;;5.10;2.70;;;;;;;28.16;43.40;102018.59;4937954;28;20047;-87
2021/08/12 11:39:09;;;;;;;4.80;2.92;;;;;;;28.79;42.92;102018.81;4931201;28;20031;-88
2021/08/12 11:41:41;;;;;;;4.72;2.50;;;;;;;29.59;41.95;102009.06;4931690;28;20068;-87